Time;durP1;ratioP1;P1;durP2;ratioP2;P2;SDS_P1;SDS_P2;PMS_P1;PMS_P2;Temp;Humidity;BMP_temperature;BMP_pressure;BME280_temperature;BME280_humidity;BME280_pressure;Samples;Min_cycle;Max_cycle;Signal;HPM_P1;HPM_P2
2021/03/09 00:01:32;;;;;;;;;58.00;45.00;;;;;6.15;36.58;99257.50;6165125;28;126087;-58
2021/03/09 00:04:34;;;;;;;;;57.20;46.00;;;;;6.08;36.77;99254.72;6160920;28;127542;-58
2021/03/09 00:07:35;;;;;;;;;60.00;46.75;;;;;5.80;36.77;99245.63;6157746;28;126455;-58
2021/03/09 00:10:37;;;;;;;;;58.25;46.00;;;;;5.98;37.13;99254.16;6165334;28;125662;-58
2021/03/09 00:13:38;;;;;;;;;58.40;45.60;;;;;5.92;37.13;99255.72;6148006;28;127574;-58
2021/03/09 00:16:39;;;;;;;;;58.00;46.60;;;;;5.88;37.33;99251.75;6137094;28;126411;-58
2021/03/09 00:19:41;;;;;;;;;60.20;46.80;;;;;5.84;37.29;99247.75;6166360;28;127609;-58
2021/03/09 00:22:43;;;;;;;;;58.60;46.20;;;;;5.80;37.12;99243.78;6165635;28;127107;-58
2021/03/09 00:25:45;;;;;;;;;61.40;48.00;;;;;5.76;37.45;99247.84;6160817;28;125043;-58
2021/03/09 00:28:46;;;;;;;;;62.00;48.00;;;;;5.73;37.36;99242.00;6162922;28;127395;-58
2021/03/09 00:31:48;;;;;;;;;62.80;48.00;;;;;5.72;37.59;99253.75;6138185;28;125281;-58
2021/03/09 00:34:49;;;;;;;;;62.75;47.75;;;;;5.68;37.84;99247.91;6160498;28;125263;-58
2021/03/09 00:37:50;;;;;;;;;62.00;48.00;;;;;5.65;38.09;99253.63;6159546;28;127535;-58
2021/03/09 00:40:52;;;;;;;;;61.00;48.60;;;;;5.66;38.03;99252.63;6169231;28;125110;-58
2021/03/09 00:43:53;;;;;;;;;64.20;50.20;;;;;5.29;37.94;99199.13;6144405;28;126200;-58
2021/03/09 00:46:55;;;;;;;;;61.00;49.40;;;;;5.61;38.27;99255.00;6143598;28;125792;-58
2021/03/09 00:49:56;;;;;;;;;61.60;49.00;;;;;5.58;38.31;99250.00;6159563;28;126347;-58
2021/03/09 00:52:58;;;;;;;;;63.40;49.00;;;;;5.57;38.20;99254.50;6160703;28;128080;-58
2021/03/09 00:55:59;;;;;;;;;63.00;50.00;;;;;5.58;38.15;99258.84;6159021;28;124248;-58
2021/03/09 00:59:01;;;;;;;;;66.00;50.00;;;;;5.57;38.39;99246.50;6146215;28;126508;-58
2021/03/09 01:02:02;;;;;;;;;62.50;50.00;;;;;5.55;38.39;99240.50;6159954;28;125135;-58
2021/03/09 01:05:04;;;;;;;;;64.00;50.00;;;;;5.53;38.50;99245.19;6160296;28;128617;-58
2021/03/09 01:08:07;;;;;;;;;65.80;51.00;;;;;5.52;38.27;99246.19;6152491;28;126185;-58
2021/03/09 01:11:08;;;;;;;;;62.00;48.00;;;;;5.53;38.57;99245.19;6160323;28;125469;-58
2021/03/09 01:14:10;;;;;;;;;63.00;48.80;;;;;5.48;38.39;99244.06;6159549;28;126943;-58
2021/03/09 01:17:11;;;;;;;;;65.40;50.00;;;;;5.44;38.33;99237.44;6159550;28;128191;-58
2021/03/09 01:20:13;;;;;;;;;66.00;51.00;;;;;5.21;38.52;99210.72;6159778;28;127565;-58
2021/03/09 01:23:15;;;;;;;;;64.00;50.00;;;;;5.40;38.22;99236.97;6159365;28;124993;-58
2021/03/09 01:26:16;;;;;;;;;62.33;47.67;;;;;5.30;38.41;99243.56;6159264;28;125497;-58
2021/03/09 01:29:18;;;;;;;;;63.20;49.00;;;;;5.29;38.60;99236.56;6158866;28;127560;-58
2021/03/09 01:32:21;;;;;;;;;57.00;46.00;;;;;5.31;38.40;99231.88;6159147;28;124909;-58
2021/03/09 01:35:23;;;;;;;;;59.50;46.00;;;;;5.31;38.58;99234.53;6159891;28;125912;-58
2021/03/09 01:38:25;;;;;;;;;58.00;46.00;;;;;5.32;38.42;99234.38;6159358;28;127133;-58
2021/03/09 01:41:26;;;;;;;;;58.00;45.00;;;;;5.33;38.44;99235.19;6159398;28;125409;-58
2021/03/09 01:44:28;;;;;;;;;57.20;44.40;;;;;5.20;38.32;99219.75;6144644;28;124433;-58
2021/03/09 01:47:31;;;;;;;;;56.00;44.00;;;;;5.36;38.58;99230.31;6157066;28;127562;-58
2021/03/09 01:50:34;;;;;;;;;57.25;44.50;;;;;5.39;38.11;99237.97;6157916;28;125193;-58
2021/03/09 01:53:36;;;;;;;;;56.40;44.40;;;;;5.24;38.59;99205.84;6158335;28;125547;-58
2021/03/09 01:56:40;;;;;;;;;58.00;45.00;;;;;5.42;38.42;99240.31;6158804;28;124930;-58
2021/03/09 01:59:43;;;;;;;;;53.00;44.00;;;;;5.19;38.26;99199.38;6158191;28;124842;-58
2021/03/09 02:02:45;;;;;;;;;57.75;45.00;;;;;5.41;38.22;99235.97;6158849;28;127495;-58
2021/03/09 02:05:47;;;;;;;;;55.00;44.80;;;;;5.28;38.24;99216.19;6159604;28;127498;-58
2021/03/09 02:08:49;;;;;;;;;57.00;46.00;;;;;5.06;38.55;99180.44;6159343;28;126215;-58
2021/03/09 02:12:16;;;;;;;;;58.00;46.00;;;;;5.34;38.45;99224.31;6159213;28;125104;-58
2021/03/09 02:15:32;;;;;;;;;60.00;45.40;;;;;5.29;38.78;99225.84;6147502;28;126386;-58
2021/03/09 02:18:48;;;;;;;;;57.80;45.20;;;;;5.28;38.56;99224.22;6153262;28;127619;-58
2021/03/09 02:22:08;;;;;;;;;57.50;44.00;;;;;5.25;38.60;99217.38;6161236;28;127685;-58
2021/03/09 02:25:28;;;;;;;;;56.00;44.00;;;;;5.11;38.59;99208.31;6135200;28;125909;-58
2021/03/09 02:28:41;;;;;;;;;58.40;45.00;;;;;5.14;38.66;99223.97;6135159;28;125315;-58
2021/03/09 02:31:47;;;;;;;;;52.00;42.00;;;;;4.89;38.61;99186.94;6145409;28;125837;-58
2021/03/09 02:34:54;;;;;;;;;55.80;42.40;;;;;5.05;38.51;99213.53;6159248;28;124258;-58
2021/03/09 02:38:01;;;;;;;;;53.00;42.60;;;;;5.13;38.18;99213.47;6159039;28;127087;-58
2021/03/09 02:41:03;;;;;;;;;50.00;41.25;;;;;5.17;38.56;99220.13;6159121;28;126713;-58
2021/03/09 02:44:07;;;;;;;;;50.50;39.75;;;;;5.18;38.40;99214.56;6149807;28;127365;-58
2021/03/09 02:47:13;;;;;;;;;48.60;39.00;;;;;5.20;38.29;99222.44;6152622;28;127135;-58
2021/03/09 02:50:19;;;;;;;;;50.00;40.75;;;;;4.96;38.44;99182.53;6158945;28;126974;-58
2021/03/09 02:53:25;;;;;;;;;51.80;40.40;;;;;5.19;38.31;99226.94;6158794;28;126522;-58
2021/03/09 02:56:26;;;;;;;;;51.25;42.50;;;;;5.20;37.95;99222.44;6158745;28;124606;-58
2021/03/09 02:59:31;;;;;;;;;51.00;40.00;;;;;5.17;38.27;99220.97;6158609;28;127539;-58
2021/03/09 03:02:36;;;;;;;;;51.60;40.60;;;;;5.13;38.06;99211.59;6163419;28;125984;-58
2021/03/09 03:05:39;;;;;;;;;47.75;39.00;;;;;5.11;38.27;99220.84;6162726;28;123602;-58
2021/03/09 03:08:44;;;;;;;;;50.60;41.00;;;;;5.14;38.15;99225.81;6162551;28;125041;-58
2021/03/09 03:11:49;;;;;;;;;49.80;40.20;;;;;5.14;38.26;99225.81;6161007;28;125903;-58
2021/03/09 03:14:52;;;;;;;;;48.60;40.00;;;;;5.10;38.40;99220.00;6146060;28;124942;-58
2021/03/09 03:17:57;;;;;;;;;53.00;41.25;;;;;5.08;38.51;99224.69;6162541;28;123914;-58
2021/03/09 03:21:00;;;;;;;;;52.00;41.60;;;;;5.08;38.48;99230.03;6161646;28;127613;-58
2021/03/09 03:24:04;;;;;;;;;57.00;44.00;;;;;4.99;38.43;99222.25;6162545;28;124816;-58
2021/03/09 03:27:07;;;;;;;;;52.25;43.00;;;;;5.00;38.49;99238.09;6161040;28;123740;-58
2021/03/09 03:30:11;;;;;;;;;56.00;44.60;;;;;4.95;38.53;99239.66;6161748;28;126084;-58
2021/03/09 03:33:13;;;;;;;;;57.40;44.40;;;;;4.84;38.97;99232.06;6161940;28;124751;-58
2021/03/09 03:36:15;;;;;;;;;53.50;44.00;;;;;4.80;38.84;99234.22;6162489;28;125759;-58
2021/03/09 03:39:16;;;;;;;;;53.00;41.00;;;;;4.49;38.74;99196.88;6161303;28;127245;-58
2021/03/09 03:42:18;;;;;;;;;51.25;41.00;;;;;4.64;39.04;99234.34;6153735;28;125225;-58
2021/03/09 03:45:21;;;;;;;;;54.60;44.00;;;;;4.66;39.01;99241.16;6157390;28;127964;-58
2021/03/09 03:48:24;;;;;;;;;52.40;42.60;;;;;4.01;39.34;99146.41;6152106;28;125976;-58
2021/03/09 03:51:33;;;;;;;;;56.00;44.00;;;;;4.55;38.83;99244.22;6159789;28;127039;-58
2021/03/09 03:55:02;;;;;;;;;57.40;44.80;;;;;4.46;39.03;99241.75;6159537;28;127266;-58
2021/03/09 03:58:33;;;;;;;;;59.00;46.00;;;;;4.27;38.90;99233.16;6161427;28;127664;-58
2021/03/09 04:01:36;;;;;;;;;58.60;45.00;;;;;4.20;39.15;99236.72;6161194;28;124645;-58
2021/03/09 04:04:40;;;;;;;;;57.80;46.00;;;;;4.04;39.36;99237.59;6159842;28;124737;-58
2021/03/09 04:07:45;;;;;;;;;59.50;45.75;;;;;3.94;39.29;99242.28;6161144;28;124039;-58
2021/03/09 04:10:48;;;;;;;;;56.60;44.00;;;;;3.82;39.32;99256.97;6161031;28;124304;-58
2021/03/09 04:13:51;;;;;;;;;57.40;45.40;;;;;3.73;39.46;99250.84;6160544;28;127117;-58
2021/03/09 04:16:54;;;;;;;;;62.00;47.60;;;;;3.67;40.04;99242.66;6159727;28;128077;-58
2021/03/09 04:19:57;;;;;;;;;57.00;45.00;;;;;3.63;39.99;99241.34;6161515;28;125423;-58
2021/03/09 04:22:59;;;;;;;;;60.40;46.00;;;;;3.45;40.21;99213.06;6161198;28;127733;-58
2021/03/09 04:26:02;;;;;;;;;57.00;46.00;;;;;3.59;40.02;99248.84;6160558;28;126222;-58
2021/03/09 04:29:05;;;;;;;;;61.40;48.60;;;;;3.55;39.76;99246.69;6160011;28;127414;-58
2021/03/09 04:32:07;;;;;;;;;58.25;46.00;;;;;3.41;39.95;99242.88;6160155;28;127255;-58
2021/03/09 04:35:10;;;;;;;;;61.00;46.80;;;;;3.34;40.17;99242.69;6160734;28;125086;-58
2021/03/09 04:38:14;;;;;;;;;57.00;45.40;;;;;3.33;40.22;99242.84;6160731;28;124742;-58
2021/03/09 04:41:15;;;;;;;;;65.00;49.00;;;;;3.31;40.27;99243.06;6160501;28;124368;-58
2021/03/09 04:44:17;;;;;;;;;56.00;44.60;;;;;3.32;39.85;99244.69;6160227;28;125510;-58
2021/03/09 04:47:19;;;;;;;;;63.25;49.25;;;;;3.26;39.81;99245.38;6160611;28;127488;-58
2021/03/09 04:50:21;;;;;;;;;61.60;47.40;;;;;3.27;40.27;99249.72;6155062;28;128161;-58
2021/03/09 04:53:23;;;;;;;;;59.80;46.00;;;;;3.22;40.12;99249.38;6160494;28;125227;-58
2021/03/09 04:56:24;;;;;;;;;63.00;47.00;;;;;3.13;40.37;99239.69;6160164;28;128323;-58
2021/03/09 04:59:25;;;;;;;;;59.00;46.00;;;;;3.18;40.48;99253.34;6161068;28;124981;-58
2021/03/09 05:02:27;;;;;;;;;60.75;46.00;;;;;3.17;40.50;99249.03;6160370;28;127816;-58
2021/03/09 05:05:29;;;;;;;;;57.40;45.40;;;;;3.16;40.44;99250.03;6160012;28;126270;-58
2021/03/09 05:08:32;;;;;;;;;57.00;44.40;;;;;3.16;40.44;99255.38;6160399;28;127846;-58
2021/03/09 05:11:34;;;;;;;;;57.80;44.00;;;;;3.21;40.75;99245.03;6154723;28;127713;-58
2021/03/09 05:14:35;;;;;;;;;53.50;44.00;;;;;3.31;40.96;99251.03;6144134;28;127405;-58
2021/03/09 05:17:37;;;;;;;;;53.00;42.00;;;;;3.40;41.01;99260.69;6156339;28;124224;-58
2021/03/09 05:20:40;;;;;;;;;51.00;40.60;;;;;3.29;40.35;99245.03;6144383;28;126014;-58
2021/03/09 05:23:42;;;;;;;;;52.60;41.60;;;;;3.59;40.38;99262.19;6135357;28;125197;-58
2021/03/09 05:26:43;;;;;;;;;53.40;42.00;;;;;3.64;40.57;99261.69;6158024;28;127446;-58
2021/03/09 05:29:44;;;;;;;;;51.80;41.80;;;;;3.78;40.54;99256.50;6171974;28;126578;-58
2021/03/09 05:32:47;;;;;;;;;53.60;42.00;;;;;3.88;40.46;99265.13;6157887;28;126125;-58
2021/03/09 05:35:48;;;;;;;;;51.00;43.00;;;;;3.99;40.55;99253.28;6160022;28;126139;-58
2021/03/09 05:38:49;;;;;;;;;52.00;43.00;;;;;4.15;40.24;99258.59;6159253;28;126774;-58
2021/03/09 05:41:51;;;;;;;;;55.00;43.00;;;;;4.30;40.34;99258.69;6151225;28;124551;-58
2021/03/09 05:44:52;;;;;;;;;51.80;42.20;;;;;4.39;39.80;99264.81;6151590;28;127996;-58
2021/03/09 05:47:54;;;;;;;;;57.00;45.00;;;;;4.50;39.72;99257.25;6159951;28;126742;-58
2021/03/09 05:50:55;;;;;;;;;56.00;43.75;;;;;4.53;39.82;99250.75;6158463;28;126470;-58
2021/03/09 05:53:57;;;;;;;;;53.80;43.00;;;;;4.75;39.95;99258.78;6159166;28;128212;-58
2021/03/09 05:56:58;;;;;;;;;53.00;42.00;;;;;4.87;39.60;99258.41;6159327;28;125250;-58
2021/03/09 06:00:00;;;;;;;;;50.40;41.80;;;;;5.10;39.52;99262.75;6159036;28;125587;-58
2021/03/09 06:03:02;;;;;;;;;55.00;43.00;;;;;5.02;38.96;99216.56;6158942;28;126352;-58
2021/03/09 06:06:03;;;;;;;;;50.40;41.20;;;;;5.41;38.98;99261.88;6159177;28;126351;-58
2021/03/09 06:09:32;;;;;;;;;54.00;42.00;;;;;5.67;38.53;99268.47;6159583;28;125270;-58
2021/03/09 06:12:37;;;;;;;;;53.00;41.60;;;;;5.89;37.74;99269.47;6155977;28;124112;-58
2021/03/09 06:15:52;;;;;;;;;51.40;41.40;;;;;6.12;37.58;99272.06;6158719;28;126915;-58
2021/03/09 06:18:56;;;;;;;;;53.00;42.00;;;;;6.30;37.17;99277.09;6158612;28;124349;-58
2021/03/09 06:21:58;;;;;;;;;53.00;42.00;;;;;6.57;36.83;99283.59;6156708;28;126791;-58
2021/03/09 06:25:04;;;;;;;;;49.80;39.60;;;;;6.81;35.91;99289.50;6157458;28;127880;-58
2021/03/09 06:28:07;;;;;;;;;48.80;38.00;;;;;6.94;35.38;99257.47;6159004;28;125196;-58
2021/03/09 06:31:11;;;;;;;;;43.60;35.60;;;;;7.50;34.89;99291.66;6158457;28;124968;-58
2021/03/09 06:34:24;;;;;;;;;43.40;36.00;;;;;7.85;34.42;99296.13;6159892;28;126136;-58
2021/03/09 06:37:25;;;;;;;;;37.00;32.60;;;;;8.15;33.07;99294.06;6162776;28;127699;-58
2021/03/09 06:40:27;;;;;;;;;45.20;35.20;;;;;8.34;32.43;99295.25;6163663;28;127114;-58
2021/03/09 06:43:43;;;;;;;;;40.00;34.20;;;;;8.52;32.12;99295.56;6158790;28;127756;-58
2021/03/09 06:46:46;;;;;;;;;42.00;35.00;;;;;8.54;32.03;99307.78;6174972;28;125784;-58
2021/03/09 06:49:54;;;;;;;;;42.00;34.80;;;;;8.45;31.92;99317.03;6163623;28;126750;-58
2021/03/09 06:53:02;;;;;;;;;41.75;35.25;;;;;8.11;31.92;99277.50;6176080;28;126060;-58
2021/03/09 06:56:23;;;;;;;;;44.00;35.60;;;;;8.22;32.32;99306.50;6174492;28;124660;-59
2021/03/09 06:59:27;;;;;;;;;44.80;36.00;;;;;8.19;32.21;99323.03;6180012;28;126841;-58
2021/03/09 07:02:29;;;;;;;;;40.80;34.40;;;;;8.11;31.95;99320.47;6170205;28;126100;-58
2021/03/09 07:05:30;;;;;;;;;47.00;36.20;;;;;7.95;32.29;99319.94;6181060;28;128346;-58
2021/03/09 07:08:32;;;;;;;;;43.20;36.00;;;;;7.90;32.61;99322.38;6174851;28;128414;-58
2021/03/09 07:11:34;;;;;;;;;47.00;38.20;;;;;7.73;32.74;99324.50;6164646;28;126303;-59
2021/03/09 07:14:44;;;;;;;;;48.40;38.40;;;;;7.67;33.10;99323.41;6178609;28;125866;-59
2021/03/09 07:17:50;;;;;;;;;47.20;39.00;;;;;7.53;33.46;99313.56;6165623;28;126389;-59
2021/03/09 07:20:55;;;;;;;;;49.00;39.00;;;;;7.65;33.66;99325.47;6177209;28;124804;-59
2021/03/09 07:23:59;;;;;;;;;46.00;38.75;;;;;7.71;33.65;99342.66;6177448;28;124674;-58
2021/03/09 07:27:11;;;;;;;;;50.00;40.00;;;;;7.78;33.48;99325.56;6162141;28;125937;-58
2021/03/09 07:30:14;;;;;;;;;52.75;41.00;;;;;7.96;33.48;99322.44;6181530;28;127650;-58
2021/03/09 07:33:16;;;;;;;;;55.00;42.60;;;;;8.46;32.81;99324.06;6173999;28;127170;-58
2021/03/09 07:36:20;;;;;;;;;52.50;42.00;;;;;8.47;32.50;99289.94;6159263;28;125725;-58
2021/03/09 07:39:24;;;;;;;;;51.60;42.00;;;;;8.96;31.92;99327.41;6179878;28;123980;-59
2021/03/09 07:42:26;;;;;;;;;53.40;42.60;;;;;9.24;31.75;99325.44;6169500;28;125249;-60
2021/03/09 07:45:33;;;;;;;;;50.00;41.20;;;;;9.56;31.53;99332.78;6171422;28;127692;-59
2021/03/09 07:48:35;;;;;;;;;51.60;41.00;;;;;10.66;29.92;99328.63;6173570;28;126017;-60
2021/03/09 07:52:15;;;;;;;;;53.80;42.00;;;;;11.24;29.23;99332.13;6170788;28;126771;-59
2021/03/09 07:55:17;;;;;;;;;53.00;42.00;;;;;11.27;28.81;99327.16;6160877;28;124728;-58
2021/03/09 07:58:26;;;;;;;;;48.20;39.20;;;;;11.85;27.87;99321.63;6168943;28;126854;-59
2021/03/09 08:01:44;;;;;;;;;49.00;39.40;;;;;12.70;26.81;99320.03;6152213;28;127085;-60
2021/03/09 08:04:57;;;;;;;;;48.50;39.50;;;;;12.96;26.26;99316.16;6177501;28;126074;-60
2021/03/09 08:08:02;;;;;;;;;50.00;39.00;;;;;12.82;26.03;99312.78;6167106;28;125860;-59
2021/03/09 08:11:04;;;;;;;;;50.00;38.00;;;;;12.93;25.87;99311.22;6174835;28;124670;-59
2021/03/09 08:14:08;;;;;;;;;46.80;38.00;;;;;13.79;25.36;99314.41;6192491;28;127349;-59
2021/03/09 08:17:26;;;;;;;;;49.00;38.00;;;;;13.87;25.23;99322.22;6159917;28;127343;-58
2021/03/09 08:20:47;;;;;;;;;48.50;39.50;;;;;13.70;25.15;99315.81;6179015;28;126050;-59
2021/03/09 08:23:48;;;;;;;;;47.25;39.00;;;;;14.85;24.00;99301.75;6176652;28;125922;-59
2021/03/09 08:26:50;;;;;;;;;48.00;38.80;;;;;17.00;21.66;99302.22;6160902;28;127094;-58
2021/03/09 08:30:26;;;;;;;;;48.00;39.00;;;;;19.17;19.34;99291.50;6180815;28;127093;-59
2021/03/09 08:33:28;;;;;;;;;47.00;37.40;;;;;20.91;17.89;99284.75;6172082;28;126808;-59
2021/03/09 08:36:34;;;;;;;;;50.75;40.50;;;;;22.33;16.62;99289.41;6161953;28;127507;-59
2021/03/09 08:39:37;;;;;;;;;48.00;40.00;;;;;23.40;15.61;99289.06;6181153;28;124425;-59
2021/03/09 08:43:00;;;;;;;;;45.60;37.20;;;;;24.02;14.92;99282.38;6154172;28;128461;-59
2021/03/09 08:46:03;;;;;;;;;48.40;38.00;;;;;24.55;14.28;99278.16;6134167;28;127708;-60
2021/03/09 08:49:04;;;;;;;;;45.00;36.25;;;;;25.16;14.37;99276.19;6167615;28;124792;-60
2021/03/09 08:52:31;;;;;;;;;44.50;36.50;;;;;25.73;13.89;99288.47;6167710;28;127230;-61
2021/03/09 08:55:33;;;;;;;;;46.20;38.00;;;;;26.28;13.55;99283.56;6167393;28;125940;-59
2021/03/09 08:58:40;;;;;;;;;42.00;35.00;;;;;26.74;12.82;99281.22;6169378;28;126034;-61
2021/03/09 09:01:42;;;;;;;;;44.00;36.00;;;;;27.04;12.76;99284.31;6168809;28;127135;-61
2021/03/09 09:04:58;;;;;;;;;41.80;35.00;;;;;27.19;12.44;99280.28;6165655;28;127281;-61
2021/03/09 09:08:00;;;;;;;;;44.00;35.00;;;;;27.48;12.61;99273.00;6171624;28;126581;-60
2021/03/09 09:11:02;;;;;;;;;36.00;32.00;;;;;27.83;12.42;99270.31;6158569;28;126134;-61
2021/03/09 09:14:16;;;;;;;;;41.40;34.00;;;;;26.59;12.66;99280.81;6167300;28;125591;-60
2021/03/09 09:17:18;;;;;;;;;38.80;32.80;;;;;24.81;13.71;99270.25;6171814;28;127629;-60
2021/03/09 09:20:24;;;;;;;;;39.00;32.00;;;;;22.66;14.28;99277.53;6184053;28;125536;-60
2021/03/09 09:23:27;;;;;;;;;35.67;31.67;;;;;21.32;16.04;99273.63;6169794;28;125858;-60
2021/03/09 09:26:28;;;;;;;;;32.00;30.00;;;;;20.17;16.74;99269.00;6190861;28;127521;-59
2021/03/09 09:29:30;;;;;;;;;35.00;32.00;;;;;19.33;17.88;99263.97;6177118;28;127092;-60
2021/03/09 09:32:56;;;;;;;;;31.80;29.40;;;;;18.56;18.40;99267.47;6167302;28;126612;-59
2021/03/09 09:35:57;;;;;;;;;30.00;28.00;;;;;17.50;18.50;99222.91;6162214;28;126102;-60
2021/03/09 09:38:59;;;;;;;;;31.60;29.00;;;;;17.29;19.18;99275.59;6165666;28;126438;-59
2021/03/09 09:42:01;;;;;;;;;28.00;27.00;;;;;16.71;19.98;99268.88;6169394;28;125309;-59
2021/03/09 09:45:03;;;;;;;;;30.40;27.00;;;;;16.06;20.41;99251.56;6166998;28;128781;-58
2021/03/09 09:48:05;;;;;;;;;28.80;25.60;;;;;15.69;20.52;99265.66;6165207;28;128326;-58
2021/03/09 09:51:18;;;;;;;;;28.00;23.40;;;;;15.17;20.32;99271.19;6172415;28;127246;-58
2021/03/09 09:54:20;;;;;;;;;25.40;23.60;;;;;14.75;21.26;99272.50;6158530;28;124842;-58
2021/03/09 09:57:22;;;;;;;;;25.00;23.40;;;;;14.40;21.08;99271.72;6160768;28;127054;-58
2021/03/09 10:00:32;;;;;;;;;25.60;22.60;;;;;14.07;21.49;99269.59;6171998;28;127889;-59
2021/03/09 10:03:48;;;;;;;;;22.00;19.60;;;;;13.73;21.31;99263.84;6168493;28;125416;-59
2021/03/09 10:06:51;;;;;;;;;23.00;21.25;;;;;13.14;21.53;99231.44;6143948;28;126135;-59
2021/03/09 10:10:03;;;;;;;;;21.00;18.50;;;;;13.11;22.13;99269.75;6178126;28;125077;-60
2021/03/09 10:13:20;;;;;;;;;19.00;19.00;;;;;12.90;22.14;99268.38;6171513;28;125807;-60
2021/03/09 10:16:38;;;;;;;;;19.60;17.60;;;;;12.68;22.65;99261.75;6154962;28;126161;-60
2021/03/09 10:19:40;;;;;;;;;20.25;20.00;;;;;12.40;22.98;99256.88;6157740;28;126584;-58
2021/03/09 10:22:43;;;;;;;;;20.60;18.00;;;;;12.31;23.16;99248.25;6175148;28;97245;-59
2021/03/09 10:25:44;;;;;;;;;19.75;18.00;;;;;12.18;23.41;99259.19;6173240;28;125328;-61
2021/03/09 10:28:46;;;;;;;;;21.20;20.00;;;;;12.04;23.53;99255.78;6172689;28;127961;-60
2021/03/09 10:32:10;;;;;;;;;21.20;20.20;;;;;11.91;23.82;99255.06;6166447;28;126806;-60
2021/03/09 10:35:12;;;;;;;;;23.00;19.60;;;;;11.25;23.64;99199.66;6167677;28;127047;-60
2021/03/09 10:38:23;;;;;;;;;22.00;19.80;;;;;11.42;23.64;99205.38;6160558;28;124010;-61
2021/03/09 10:41:26;;;;;;;;;16.80;16.20;;;;;11.51;23.39;99241.03;6169038;28;127134;-61
2021/03/09 10:44:33;;;;;;;;;17.50;16.50;;;;;11.59;23.52;99241.56;6174803;28;125289;-61
2021/03/09 10:47:34;;;;;;;;;17.00;17.00;;;;;11.63;23.10;99240.09;6157489;28;124882;-60
2021/03/09 10:50:40;;;;;;;;;23.00;20.00;;;;;11.55;23.80;99236.84;6164923;28;126841;-61
2021/03/09 10:53:41;;;;;;;;;21.00;18.00;;;;;11.62;24.14;99224.13;6181094;28;125887;-61
2021/03/09 10:56:43;;;;;;;;;23.00;20.60;;;;;11.91;24.18;99228.06;6156404;28;128248;-61
2021/03/09 10:59:44;;;;;;;;;22.40;21.00;;;;;11.75;22.88;99180.81;6179076;28;126727;-61
2021/03/09 11:02:46;;;;;;;;;20.40;17.80;;;;;11.83;22.02;99225.63;6166018;28;125673;-60
2021/03/09 11:05:48;;;;;;;;;20.00;19.00;;;;;11.76;21.83;99232.97;6158086;28;126197;-60
2021/03/09 11:08:49;;;;;;;;;17.40;16.00;;;;;11.86;21.70;99231.44;6166012;28;125402;-60
2021/03/09 11:11:51;;;;;;;;;20.00;19.00;;;;;11.99;21.29;99228.59;6165288;28;127298;-60
2021/03/09 11:14:52;;;;;;;;;18.75;18.00;;;;;12.18;21.45;99207.00;6177703;28;126191;-60
2021/03/09 11:17:53;;;;;;;;;19.00;17.00;;;;;12.34;21.43;99182.91;6168868;28;126656;-60
2021/03/09 11:20:55;;;;;;;;;19.00;18.00;;;;;13.05;20.64;99221.97;6163295;28;125168;-59
2021/03/09 11:23:57;;;;;;;;;17.60;16.60;;;;;13.81;20.63;99220.19;6176985;28;127911;-61
2021/03/09 11:27:00;;;;;;;;;18.20;18.00;;;;;14.54;20.64;99208.84;6166481;28;125452;-62
2021/03/09 11:30:05;;;;;;;;;18.00;15.20;;;;;15.12;19.75;99207.81;6177483;28;126194;-60
2021/03/09 11:33:54;;;;;;;;;16.00;15.00;;;;;15.53;19.35;99201.25;6175311;28;123784;-62
2021/03/09 11:36:55;;;;;;;;;19.40;17.60;;;;;15.64;18.66;99200.31;6164103;28;124819;-61
2021/03/09 11:39:57;;;;;;;;;23.00;20.00;;;;;15.42;18.92;99192.06;6156481;28;127486;-61
2021/03/09 11:42:59;;;;;;;;;21.60;20.00;;;;;16.18;18.46;99189.72;6171992;28;125989;-62
2021/03/09 11:46:00;;;;;;;;;23.00;21.00;;;;;16.60;18.15;99190.91;6174182;28;125069;-61
2021/03/09 11:49:04;;;;;;;;;19.00;19.00;;;;;16.23;18.32;99149.00;6179218;28;124996;-61
2021/03/09 11:52:05;;;;;;;;;24.00;22.00;;;;;16.48;17.77;99185.53;6168890;28;124716;-60
2021/03/09 11:55:08;;;;;;;;;19.25;18.25;;;;;16.07;18.42;99172.47;6170326;28;126555;-61
2021/03/09 11:58:10;;;;;;;;;22.00;19.00;;;;;15.53;18.95;99157.78;6157410;28;124848;-60
2021/03/09 12:01:11;;;;;;;;;21.00;19.00;;;;;15.69;19.02;99175.94;6150770;28;125475;-60
2021/03/09 12:04:16;;;;;;;;;22.80;20.60;;;;;15.43;19.76;99171.16;6157045;28;125989;-61
2021/03/09 12:07:18;;;;;;;;;21.00;20.50;;;;;15.28;20.21;99169.00;6148560;28;126399;-61
2021/03/09 12:10:20;;;;;;;;;21.40;20.40;;;;;14.98;19.22;99130.44;6151436;28;124996;-60
2021/03/09 12:13:22;;;;;;;;;24.00;22.00;;;;;14.87;19.93;99155.72;6152148;28;127098;-61
2021/03/09 12:16:23;;;;;;;;;22.40;21.00;;;;;14.55;20.87;99155.41;6151983;28;125226;-60
2021/03/09 12:19:25;;;;;;;;;22.40;21.00;;;;;14.43;20.88;99158.13;6150388;28;127175;-61
2021/03/09 12:22:27;;;;;;;;;22.00;21.75;;;;;14.33;21.17;99152.47;6134723;28;125240;-61
2021/03/09 12:25:29;;;;;;;;;20.00;19.00;;;;;14.26;21.38;99149.91;6154251;28;127387;-61
2021/03/09 12:28:31;;;;;;;;;22.00;19.00;;;;;14.11;21.41;99146.03;6147455;28;124067;-61
2021/03/09 12:31:32;;;;;;;;;19.25;17.25;;;;;14.03;21.56;99146.38;6159256;28;125476;-59
2021/03/09 12:34:34;;;;;;;;;19.60;17.20;;;;;14.01;21.67;99148.53;6149338;28;126639;-59
2021/03/09 12:37:35;;;;;;;;;18.60;17.60;;;;;13.86;21.36;99138.16;6150772;28;126615;-59
2021/03/09 12:40:37;;;;;;;;;24.00;20.00;;;;;13.74;21.66;99143.56;6151876;28;126358;-58
2021/03/09 12:43:38;;;;;;;;;20.00;18.50;;;;;13.39;21.96;99131.88;6151819;28;126684;-58
2021/03/09 12:46:40;;;;;;;;;18.80;17.20;;;;;13.53;22.14;99132.50;6150638;28;126762;-58
2021/03/09 12:49:43;;;;;;;;;18.40;17.60;;;;;12.55;21.66;99136.47;6148566;28;127652;-59
2021/03/09 12:52:45;;;;;;;;;20.00;18.40;;;;;12.57;22.35;99138.94;6151467;28;123486;-59
2021/03/09 12:55:47;;;;;;;;;20.40;19.00;;;;;12.58;22.65;99136.00;6151533;28;124530;-60
2021/03/09 12:58:48;;;;;;;;;20.33;18.67;;;;;12.67;22.43;99139.22;6148353;28;125328;-60
2021/03/09 13:01:49;;;;;;;;;19.40;18.00;;;;;12.70;22.56;99129.81;6162872;28;127432;-60
2021/03/09 13:04:54;;;;;;;;;21.40;18.00;;;;;12.59;23.08;99088.97;6172819;28;124499;-60
2021/03/09 13:07:55;;;;;;;;;23.00;20.00;;;;;12.63;22.52;99083.09;6161767;28;126013;-60
2021/03/09 13:10:57;;;;;;;;;23.00;20.25;;;;;12.91;22.49;99129.28;6167869;28;126205;-59
2021/03/09 13:13:59;;;;;;;;;19.00;18.60;;;;;12.80;22.66;99097.63;6157076;28;125938;-59
2021/03/09 13:17:00;;;;;;;;;20.00;18.00;;;;;12.96;22.19;99124.00;6147201;28;125378;-60
2021/03/09 13:20:08;;;;;;;;;20.60;19.60;;;;;12.98;21.89;99122.75;6153051;28;126460;-60
2021/03/09 13:23:10;;;;;;;;;22.00;19.60;;;;;12.94;21.99;99126.13;6153049;28;125602;-61
2021/03/09 13:26:12;;;;;;;;;21.00;20.00;;;;;12.76;22.34;99093.72;6153917;28;127273;-62
2021/03/09 13:29:14;;;;;;;;;21.80;19.80;;;;;12.97;22.58;99118.38;6147275;28;124348;-59
2021/03/09 13:32:16;;;;;;;;;20.75;18.75;;;;;12.88;22.46;99122.47;6163796;28;125544;-60
2021/03/09 13:35:17;;;;;;;;;22.00;20.80;;;;;12.84;23.28;99132.09;6174549;28;126700;-60
2021/03/09 13:38:19;;;;;;;;;22.50;20.00;;;;;12.87;23.49;99128.09;6170859;28;127568;-60
2021/03/09 13:41:20;;;;;;;;;24.00;22.00;;;;;12.58;23.42;99121.66;6183369;28;125740;-61
2021/03/09 13:44:22;;;;;;;;;20.40;19.00;;;;;12.59;23.73;99120.59;6147141;28;127773;-60
2021/03/09 13:47:23;;;;;;;;;21.80;20.00;;;;;12.65;24.04;99118.88;6147839;28;127269;-60
2021/03/09 13:50:25;;;;;;;;;21.50;19.50;;;;;12.37;24.16;99093.22;6197137;28;125307;-60
2021/03/09 13:53:27;;;;;;;;;22.20;22.00;;;;;12.81;23.99;99120.91;6152011;28;126473;-60
2021/03/09 13:56:28;;;;;;;;;18.25;18.00;;;;;13.05;23.94;99122.63;6139693;28;126308;-60
2021/03/09 13:59:30;;;;;;;;;20.00;18.00;;;;;13.43;23.73;99106.00;6141374;28;125177;-60
2021/03/09 14:02:31;;;;;;;;;22.40;21.00;;;;;13.50;23.17;99087.75;6134951;28;126579;-60
2021/03/09 14:05:33;;;;;;;;;17.60;16.60;;;;;13.83;22.64;99106.09;6132497;28;125071;-60